createdAt,value
2022-10-17T00:01:17.054Z,17.04
2022-10-17T00:03:44.168Z,16.85
2022-10-17T00:06:14.748Z,16.67
2022-10-17T00:08:44.267Z,17.00
2022-10-17T00:11:19.958Z,16.96
2022-10-17T00:13:52.856Z,17.16
2022-10-17T00:16:33.297Z,16.85
2022-10-17T00:19:00.876Z,17.02
2022-10-17T00:21:28.054Z,17.01
2022-10-17T00:23:55.351Z,17.01
2022-10-17T00:26:23.164Z,17.21
2022-10-17T00:28:53.162Z,17.16
2022-10-17T00:31:22.745Z,17.25
2022-10-17T00:33:51.331Z,17.03
2022-10-17T00:36:25.801Z,16.83
2022-10-17T00:38:57.568Z,16.93
2022-10-17T00:41:32.851Z,16.69
2022-10-17T00:44:29.023Z,16.99
2022-10-17T00:47:05.123Z,16.87
2022-10-17T00:49:42.510Z,16.93
2022-10-17T00:52:32.267Z,16.95
2022-10-17T00:55:09.620Z,16.89
2022-10-17T00:57:47.324Z,16.91
2022-10-17T01:00:17.047Z,16.91
2022-10-17T01:02:45.506Z,17.23
2022-10-17T01:05:16.323Z,17.49
2022-10-17T01:07:45.798Z,17.36
2022-10-17T01:10:14.337Z,17.36
2022-10-17T01:13:23.386Z,17.62
2022-10-17T01:16:07.060Z,17.45
2022-10-17T01:18:43.144Z,17.86
2022-10-17T01:21:46.942Z,17.78
2022-10-17T01:24:56.137Z,17.55
2022-10-17T01:28:10.537Z,17.30
2022-10-17T01:31:22.839Z,17.33
2022-10-17T01:34:31.127Z,17.29
2022-10-17T01:37:26.156Z,17.73
2022-10-17T01:40:01.870Z,17.65
2022-10-17T01:42:49.475Z,17.35
2022-10-17T01:45:44.991Z,17.25
2022-10-17T01:48:25.826Z,17.38
2022-10-17T01:51:03.175Z,17.46
2022-10-17T01:53:41.694Z,17.04
2022-10-17T01:56:13.240Z,17.24
2022-10-17T01:58:53.159Z,17.41
2022-10-17T02:01:33.311Z,17.73
2022-10-17T02:04:06.868Z,17.24
2022-10-17T02:06:40.843Z,16.37
2022-10-17T02:09:20.361Z,16.26
2022-10-17T02:12:21.744Z,16.87
2022-10-17T02:15:11.204Z,16.70
2022-10-17T02:18:17.242Z,17.08
2022-10-17T02:21:02.900Z,17.13
2022-10-17T02:23:48.027Z,17.26
2022-10-17T02:26:47.463Z,17.29
2022-10-17T02:29:23.843Z,17.34
2022-10-17T02:32:23.287Z,16.90
2022-10-17T02:34:56.480Z,17.21
2022-10-17T02:37:47.114Z,17.36
2022-10-17T02:40:20.827Z,17.41
2022-10-17T02:42:51.839Z,17.02
2022-10-17T02:45:23.859Z,17.33
2022-10-17T02:48:05.811Z,17.09
2022-10-17T02:50:56.581Z,16.79
2022-10-17T02:53:43.304Z,16.90
2022-10-17T02:56:20.222Z,17.34
2022-10-17T02:58:55.268Z,17.48
2022-10-17T03:01:27.249Z,17.39
2022-10-17T03:04:14.329Z,17.71
2022-10-17T03:06:42.414Z,17.23
2022-10-17T03:09:10.029Z,17.23
2022-10-17T03:11:37.234Z,17.63
2022-10-17T03:14:11.356Z,17.19
2022-10-17T03:16:38.864Z,17.24
2022-10-17T03:19:09.229Z,17.04
2022-10-17T03:21:37.951Z,16.47
2022-10-17T03:24:05.735Z,16.77
2022-10-17T03:26:32.995Z,16.63
2022-10-17T03:29:00.360Z,16.72
2022-10-17T03:31:28.001Z,16.80
2022-10-17T03:33:55.088Z,17.17
2022-10-17T03:36:22.501Z,17.25
2022-10-17T03:38:53.941Z,17.27
2022-10-17T03:41:21.362Z,17.06
2022-10-17T03:43:48.530Z,17.71
2022-10-17T03:46:15.578Z,17.68
2022-10-17T03:48:42.659Z,17.93
2022-10-17T03:51:12.893Z,17.79
2022-10-17T03:53:40.469Z,17.24
2022-10-17T03:56:16.322Z,17.42
2022-10-17T03:58:44.193Z,17.34
2022-10-17T04:01:15.783Z,17.59
2022-10-17T04:03:43.830Z,17.02
2022-10-17T04:06:12.979Z,16.81
2022-10-17T04:08:43.089Z,16.87
2022-10-17T04:11:17.536Z,17.38
2022-10-17T04:13:45.929Z,17.47
2022-10-17T04:16:18.344Z,17.20
2022-10-17T04:18:45.399Z,17.05
2022-10-17T04:21:14.218Z,17.30
2022-10-17T04:23:41.339Z,17.06
2022-10-17T04:26:08.899Z,17.20
2022-10-17T04:31:15.024Z,17.35
2022-10-17T04:33:45.632Z,17.40
2022-10-17T04:36:17.707Z,17.57
2022-10-17T04:38:45.958Z,17.49
2022-10-17T04:41:17.641Z,17.59
2022-10-17T04:43:51.123Z,17.61
2022-10-17T04:46:22.058Z,17.67
2022-10-17T04:48:57.051Z,17.64
2022-10-17T04:51:26.742Z,17.64
2022-10-17T04:53:54.198Z,17.50
2022-10-17T04:56:25.069Z,17.83
2022-10-17T04:58:52.923Z,17.50
2022-10-17T05:01:24.297Z,17.28
2022-10-17T05:03:52.923Z,17.52
2022-10-17T05:06:30.424Z,17.70
2022-10-17T05:08:59.103Z,17.68
2022-10-17T05:11:33.314Z,17.65
2022-10-17T05:14:03.207Z,17.66
2022-10-17T05:16:35.979Z,17.13
2022-10-17T05:19:03.620Z,17.03
2022-10-17T05:24:00.373Z,17.42
2022-10-17T05:26:27.543Z,17.69
2022-10-17T05:28:54.910Z,17.51
2022-10-17T05:31:24.058Z,17.70
2022-10-17T05:33:51.228Z,17.01
2022-10-17T05:36:20.823Z,17.45
2022-10-17T05:38:51.914Z,17.48
2022-10-17T05:41:20.646Z,17.57
2022-10-17T05:43:48.161Z,17.53
2022-10-17T05:46:19.272Z,17.52
2022-10-17T05:48:46.392Z,17.54
2022-10-17T05:51:13.613Z,17.83
2022-10-17T05:53:41.714Z,18.11
2022-10-17T05:56:12.577Z,17.74
2022-10-17T05:58:53.243Z,17.91
2022-10-17T06:01:25.184Z,17.57
2022-10-17T06:03:52.632Z,17.84
2022-10-17T06:06:20.090Z,17.07
2022-10-17T06:08:47.235Z,17.35
2022-10-17T06:11:14.336Z,17.75
2022-10-17T06:13:42.428Z,17.99
2022-10-17T06:16:09.866Z,18.08
2022-10-17T06:18:37.069Z,18.42
2022-10-17T06:21:07.672Z,18.29
2022-10-17T06:23:34.902Z,18.19
2022-10-17T06:26:07.015Z,18.23
2022-10-17T06:28:36.197Z,18.61
2022-10-17T06:31:13.961Z,18.50
2022-10-17T06:33:41.546Z,18.87
2022-10-17T06:36:12.606Z,19.06
2022-10-17T06:38:42.953Z,19.22
2022-10-17T06:41:16.399Z,19.60
2022-10-17T06:43:47.948Z,19.95
2022-10-17T06:46:20.159Z,19.86
2022-10-17T06:48:47.325Z,19.01
2022-10-17T06:51:14.298Z,18.61
2022-10-17T06:53:41.452Z,18.61
2022-10-17T06:56:10.352Z,18.85
2022-10-17T06:58:39.801Z,18.19
2022-10-17T07:01:13.972Z,17.63
2022-10-17T07:03:43.716Z,17.51
2022-10-17T07:06:13.162Z,18.01
2022-10-17T07:08:45.458Z,18.38
2022-10-17T07:11:21.768Z,18.23
2022-10-17T07:13:54.313Z,18.39
2022-10-17T07:16:28.333Z,17.72
2022-10-17T07:18:57.747Z,17.64
2022-10-17T07:21:28.279Z,18.50
2022-10-17T07:23:55.499Z,18.50
2022-10-17T07:26:25.655Z,18.59
2022-10-17T07:28:57.472Z,18.68
2022-10-17T07:31:25.728Z,18.33
2022-10-17T07:33:56.855Z,18.56
2022-10-17T07:36:24.013Z,18.80
2022-10-17T07:38:50.978Z,19.45
2022-10-17T07:41:21.730Z,19.38
2022-10-17T07:43:50.222Z,18.87
2022-10-17T07:46:19.441Z,19.00
2022-10-17T07:48:46.647Z,19.87
2022-10-17T07:51:13.765Z,20.03
2022-10-17T07:53:46.398Z,19.92
2022-10-17T07:56:16.290Z,19.20
2022-10-17T07:58:48.371Z,20.01
2022-10-17T08:01:18.906Z,18.80
2022-10-17T08:03:48.854Z,19.90
2022-10-17T08:06:16.222Z,20.44
2022-10-17T08:08:44.453Z,18.98
2022-10-17T08:11:14.624Z,18.97
2022-10-17T08:14:01.254Z,19.72
2022-10-17T08:16:28.767Z,19.44
2022-10-17T08:18:58.781Z,19.37
2022-10-17T08:21:25.956Z,19.66
2022-10-17T08:23:53.390Z,19.37
2022-10-17T08:26:21.853Z,19.73
2022-10-17T08:28:50.121Z,19.45
2022-10-17T08:31:27.750Z,18.99
2022-10-17T08:33:58.399Z,19.32
2022-10-17T08:36:25.510Z,19.12
2022-10-17T08:38:53.147Z,18.96
2022-10-17T08:42:02.499Z,19.32
2022-10-17T08:44:58.480Z,19.93
2022-10-17T08:47:39.647Z,19.83
2022-10-17T08:50:22.176Z,20.49
2022-10-17T08:53:04.598Z,21.01
2022-10-17T08:55:44.547Z,20.94
2022-10-17T08:58:31.456Z,21.28
2022-10-17T09:01:33.132Z,21.07
2022-10-17T09:04:11.880Z,21.62
2022-10-17T09:06:47.212Z,21.92
2022-10-17T09:09:44.767Z,22.43
2022-10-17T09:12:34.095Z,22.37
2022-10-17T09:15:26.212Z,23.05
2022-10-17T09:18:23.877Z,24.65
2022-10-17T09:21:23.730Z,23.64
2022-10-17T09:24:09.570Z,24.67
2022-10-17T09:26:41.637Z,25.72
2022-10-17T09:29:35.309Z,25.30
2022-10-17T09:32:24.103Z,25.63
2022-10-17T09:34:53.897Z,26.55
2022-10-17T09:37:32.427Z,24.33
2022-10-17T09:40:02.134Z,24.46
2022-10-17T09:42:30.525Z,25.32
2022-10-17T09:45:14.739Z,24.76
2022-10-17T09:50:34.226Z,24.54
2022-10-17T09:53:15.852Z,23.99
2022-10-17T09:55:51.729Z,23.81
2022-10-17T09:58:21.544Z,25.71
2022-10-17T10:00:52.661Z,24.10
2022-10-17T10:03:26.620Z,24.01
2022-10-17T10:06:06.538Z,23.49
2022-10-17T10:08:49.148Z,25.58
2022-10-17T10:11:20.045Z,24.43
2022-10-17T10:13:54.374Z,25.07
2022-10-17T10:16:33.632Z,25.53
2022-10-17T10:19:03.597Z,24.92
2022-10-17T10:21:37.255Z,25.95
2022-10-17T10:24:10.663Z,25.31
2022-10-17T10:26:50.024Z,30.05
2022-10-17T10:29:34.275Z,31.07
2022-10-17T10:32:24.383Z,28.81
2022-10-17T10:35:19.975Z,25.57
2022-10-17T10:37:53.024Z,25.93
2022-10-17T10:40:37.341Z,26.92
2022-10-17T10:43:08.910Z,26.65
2022-10-17T10:45:54.106Z,27.43
2022-10-17T10:48:24.510Z,27.88
2022-10-17T10:51:01.253Z,29.01
2022-10-17T10:54:03.863Z,28.80
2022-10-17T10:56:55.033Z,32.17
2022-10-17T10:59:45.996Z,32.61
2022-10-17T11:02:23.812Z,32.67
2022-10-17T11:05:31.218Z,31.88
2022-10-17T11:08:35.805Z,31.71
2022-10-17T11:11:18.255Z,34.70
2022-10-17T11:14:05.027Z,34.80
2022-10-17T11:17:03.212Z,32.42
2022-10-17T11:19:56.857Z,34.34
2022-10-17T11:23:22.243Z,34.26
2022-10-17T11:25:53.980Z,33.74
2022-10-17T11:28:25.459Z,33.33
2022-10-17T11:31:09.554Z,32.88
2022-10-17T11:34:19.717Z,33.26
2022-10-17T11:36:54.722Z,34.16
2022-10-17T11:39:52.596Z,31.19
2022-10-17T11:42:32.977Z,35.97
2022-10-17T11:45:09.631Z,36.44
2022-10-17T11:48:07.806Z,36.78
2022-10-17T11:54:12.203Z,38.99
2022-10-17T11:57:37.454Z,38.44
2022-10-17T12:00:25.897Z,36.80
2022-10-17T12:03:21.544Z,36.20
2022-10-17T12:05:59.113Z,31.33
2022-10-17T12:08:43.321Z,28.10
2022-10-17T12:11:42.969Z,31.94
2022-10-17T12:14:41.238Z,35.03
2022-10-17T12:17:37.434Z,39.21
2022-10-17T12:20:23.927Z,40.76
2022-10-17T12:23:05.445Z,42.77
2022-10-17T12:28:17.644Z,38.98
2022-10-17T12:31:15.523Z,36.55
2022-10-17T12:33:48.990Z,40.12
2022-10-17T12:36:28.865Z,42.56
2022-10-17T12:39:06.674Z,43.41
2022-10-17T12:41:40.176Z,37.25
2022-10-17T12:44:13.552Z,37.14
2022-10-17T12:47:10.965Z,35.13
2022-10-17T12:49:56.447Z,34.58
2022-10-17T12:52:35.452Z,35.66
2022-10-17T12:55:14.774Z,31.45
2022-10-17T12:58:14.891Z,34.09
2022-10-17T13:01:05.143Z,35.74
2022-10-17T13:03:45.281Z,30.88
2022-10-17T13:06:29.601Z,35.44
2022-10-17T13:09:17.900Z,30.85
2022-10-17T13:11:45.487Z,29.39
2022-10-17T13:14:17.042Z,32.00
2022-10-17T13:17:03.473Z,33.81
2022-10-17T13:19:48.447Z,34.66
2022-10-17T13:22:29.781Z,36.76
2022-10-17T13:25:16.403Z,36.78
2022-10-17T13:27:44.933Z,35.98
2022-10-17T13:30:31.243Z,39.25
2022-10-17T13:33:03.855Z,40.03
2022-10-17T13:38:37.805Z,33.78
2022-10-17T13:41:34.762Z,29.90
2022-10-17T13:44:10.390Z,34.19
2022-10-17T13:46:40.932Z,31.46
2022-10-17T13:49:25.916Z,30.21
2022-10-17T13:51:55.776Z,32.17
2022-10-17T13:54:40.470Z,31.47
2022-10-17T13:57:31.515Z,31.67
2022-10-17T14:00:22.105Z,29.69
2022-10-17T14:02:49.644Z,29.52
2022-10-17T14:05:23.485Z,34.58
2022-10-17T14:08:14.997Z,35.63
2022-10-17T14:10:47.437Z,39.70
2022-10-17T14:13:36.042Z,39.46
2022-10-17T14:16:05.447Z,39.13
2022-10-17T14:18:36.976Z,33.78
2022-10-17T14:24:22.220Z,28.32
2022-10-17T14:26:58.725Z,29.48
2022-10-17T14:29:29.097Z,28.76
2022-10-17T14:32:11.035Z,30.31
2022-10-17T14:34:40.993Z,29.30
2022-10-17T14:37:25.420Z,31.82
2022-10-17T14:39:55.218Z,31.53
2022-10-17T14:42:26.560Z,31.66
2022-10-17T14:45:04.409Z,33.16
2022-10-17T14:47:43.497Z,30.04
2022-10-17T14:50:13.885Z,29.79
2022-10-17T14:52:41.202Z,29.87
2022-10-17T14:55:37.154Z,27.71
2022-10-17T14:58:36.612Z,28.14
2022-10-17T15:01:05.481Z,31.03
2022-10-17T15:03:38.722Z,29.39
2022-10-17T15:06:46.122Z,29.82
2022-10-17T15:09:13.340Z,30.63
2022-10-17T15:11:40.495Z,29.94
2022-10-17T15:14:07.654Z,28.04
2022-10-17T15:16:40.161Z,28.92
2022-10-17T15:19:07.322Z,27.92
2022-10-17T15:21:43.260Z,27.95
2022-10-17T15:24:14.168Z,28.27
2022-10-17T15:26:41.968Z,28.30
2022-10-17T15:29:15.986Z,27.51
2022-10-17T15:31:43.737Z,27.56
2022-10-17T15:34:11.419Z,27.43
2022-10-17T15:36:50.679Z,27.61
2022-10-17T15:39:17.642Z,28.04
2022-10-17T15:41:44.798Z,27.31
2022-10-17T15:44:11.885Z,26.93
2022-10-17T15:46:43.298Z,26.61
2022-10-17T15:49:20.051Z,26.49
2022-10-17T15:51:50.321Z,27.63
2022-10-17T15:54:19.192Z,27.60
2022-10-17T15:56:55.143Z,26.49
2022-10-17T15:59:33.494Z,24.70
2022-10-17T16:02:05.502Z,24.35
2022-10-17T16:04:32.933Z,23.49
2022-10-17T16:07:02.791Z,22.90
2022-10-17T16:09:34.465Z,22.49
2022-10-17T16:12:05.370Z,22.92
2022-10-17T16:14:33.285Z,22.73
2022-10-17T16:17:00.848Z,22.57
2022-10-17T16:19:30.608Z,22.83
2022-10-17T16:22:04.352Z,21.38
2022-10-17T16:24:32.282Z,20.86
2022-10-17T16:26:59.437Z,20.94
2022-10-17T16:29:29.873Z,21.02
2022-10-17T16:31:56.999Z,20.84
2022-10-17T16:34:24.251Z,20.87
2022-10-17T16:36:52.477Z,21.29
2022-10-17T16:39:20.843Z,20.53
2022-10-17T16:41:53.594Z,20.49
2022-10-17T16:44:25.836Z,20.25
2022-10-17T16:46:52.944Z,19.92
2022-10-17T16:49:20.768Z,19.99
2022-10-17T16:51:49.320Z,20.10
2022-10-17T16:54:16.659Z,20.22
2022-10-17T16:56:43.937Z,20.64
2022-10-17T16:59:14.656Z,20.16
2022-10-17T17:01:45.547Z,20.13
2022-10-17T17:04:15.499Z,20.48
2022-10-17T17:09:18.024Z,20.72
2022-10-17T17:11:45.418Z,19.72
2022-10-17T17:14:13.616Z,19.18
2022-10-17T17:16:44.785Z,19.50
2022-10-17T17:19:22.645Z,20.01
2022-10-17T17:21:52.980Z,20.30
2022-10-17T17:24:25.772Z,20.48
2022-10-17T17:26:56.301Z,20.74
2022-10-17T17:29:29.266Z,20.60
2022-10-17T17:31:56.385Z,20.70
2022-10-17T17:34:26.641Z,20.90
2022-10-17T17:36:55.610Z,20.03
2022-10-17T17:39:23.941Z,19.68
2022-10-17T17:41:55.776Z,19.62
2022-10-17T17:44:23.436Z,19.68
2022-10-17T17:46:51.801Z,19.03
2022-10-17T17:49:19.101Z,19.62
2022-10-17T17:51:49.668Z,19.46
2022-10-17T17:54:16.975Z,20.07
2022-10-17T17:56:44.712Z,20.07
2022-10-17T17:59:15.123Z,20.45
2022-10-17T18:01:45.074Z,19.92
2022-10-17T18:04:13.467Z,19.72
2022-10-17T18:06:41.799Z,20.05
2022-10-17T18:09:10.474Z,20.03
2022-10-17T18:11:38.736Z,20.11
2022-10-17T18:14:12.516Z,20.69
2022-10-17T18:16:40.494Z,20.48
2022-10-17T18:19:12.357Z,20.86
2022-10-17T18:21:39.659Z,20.45
2022-10-17T18:24:09.919Z,18.70
2022-10-17T18:26:37.273Z,17.99
2022-10-17T18:29:06.373Z,18.79
2022-10-17T18:31:37.796Z,19.20
2022-10-17T18:34:06.618Z,19.78
2022-10-17T18:36:36.147Z,19.17
2022-10-17T18:39:06.401Z,19.28
2022-10-17T18:41:39.884Z,19.20
2022-10-17T18:44:08.266Z,18.13
2022-10-17T18:46:41.023Z,18.07
2022-10-17T18:49:12.980Z,18.92
2022-10-17T18:51:41.593Z,19.44
2022-10-17T18:54:23.233Z,19.28
2022-10-17T18:57:04.210Z,18.68
2022-10-17T18:59:34.197Z,18.47
2022-10-17T19:04:43.613Z,18.78
2022-10-17T19:07:11.467Z,18.89
2022-10-17T19:09:42.662Z,18.71
2022-10-17T19:12:09.830Z,18.89
2022-10-17T19:14:39.440Z,17.38
2022-10-17T19:17:06.923Z,17.99
2022-10-17T19:19:35.147Z,18.39
2022-10-17T19:22:03.688Z,18.90
2022-10-17T19:24:31.953Z,18.82
2022-10-17T19:27:04.403Z,18.90
2022-10-17T19:29:33.120Z,18.50
2022-10-17T19:32:06.811Z,18.03
2022-10-17T19:34:35.788Z,18.48
2022-10-17T19:37:03.149Z,18.79
2022-10-17T19:39:30.565Z,18.65
2022-10-17T19:41:57.915Z,18.29
2022-10-17T19:44:31.815Z,17.79
2022-10-17T19:47:03.350Z,17.05
2022-10-17T19:49:31.015Z,16.61
2022-10-17T19:51:58.499Z,16.64
2022-10-17T19:54:26.449Z,16.80
2022-10-17T19:56:53.886Z,17.29
2022-10-17T19:59:21.496Z,17.57
2022-10-17T20:01:57.397Z,18.03
2022-10-17T20:04:25.815Z,17.40
2022-10-17T20:06:53.210Z,17.35
2022-10-17T20:09:21.082Z,17.57
2022-10-17T20:11:52.884Z,17.87
2022-10-17T20:14:20.390Z,17.66
2022-10-17T20:16:52.719Z,17.92
2022-10-17T20:19:28.310Z,17.88
2022-10-17T20:22:03.293Z,18.00
2022-10-17T20:24:32.696Z,18.12
2022-10-17T20:27:03.486Z,18.86
2022-10-17T20:29:30.777Z,18.99
2022-10-17T20:32:01.654Z,19.14
2022-10-17T20:34:35.794Z,19.30
2022-10-17T20:37:09.466Z,19.48
2022-10-17T20:39:36.626Z,19.47
2022-10-17T20:42:03.664Z,19.32
2022-10-17T20:44:31.316Z,19.29
2022-10-17T20:47:02.109Z,19.06
2022-10-17T20:49:31.656Z,18.37
2022-10-17T20:52:00.783Z,18.57
2022-10-17T20:54:28.816Z,16.65
2022-10-17T20:57:01.197Z,16.36
2022-10-17T20:59:34.412Z,16.35
2022-10-17T21:02:02.855Z,16.66
2022-10-17T21:04:45.989Z,17.88
2022-10-17T21:07:14.880Z,17.24
2022-10-17T21:09:46.490Z,17.08
2022-10-17T21:12:26.226Z,17.65
2022-10-17T21:15:05.679Z,17.67
2022-10-17T21:17:33.486Z,17.57
2022-10-17T21:20:01.948Z,18.17
2022-10-17T21:22:29.722Z,17.91
2022-10-17T21:24:57.130Z,17.68
2022-10-17T21:27:25.012Z,17.83
2022-10-17T21:29:52.483Z,18.16
2022-10-17T21:32:33.397Z,18.03
2022-10-17T21:35:09.850Z,17.54
2022-10-17T21:37:43.073Z,17.11
2022-10-17T21:40:16.468Z,17.02
2022-10-17T21:42:43.863Z,17.20
2022-10-17T21:45:15.631Z,17.21
2022-10-17T21:48:12.199Z,16.84
2022-10-17T21:50:41.634Z,17.45
2022-10-17T21:53:08.976Z,17.63
2022-10-17T21:55:42.461Z,17.56
2022-10-17T21:58:13.402Z,17.73
2022-10-17T22:00:44.049Z,17.60
2022-10-17T22:03:12.979Z,17.73
2022-10-17T22:05:40.187Z,18.07
2022-10-17T22:08:07.244Z,18.24
2022-10-17T22:10:38.440Z,18.17
2022-10-17T22:13:08.055Z,17.11
2022-10-17T22:15:37.393Z,16.01
2022-10-17T22:18:07.493Z,16.91
2022-10-17T22:20:36.446Z,16.96
2022-10-17T22:23:03.993Z,17.29
2022-10-17T22:25:31.108Z,17.65
2022-10-17T22:27:58.375Z,17.76
2022-10-17T22:30:28.556Z,17.51
2022-10-17T22:32:55.839Z,17.10
2022-10-17T22:35:23.095Z,17.54
2022-10-17T22:37:51.574Z,17.96
2022-10-17T22:40:20.945Z,17.94
2022-10-17T22:42:48.123Z,17.30
2022-10-17T22:45:15.192Z,16.69
2022-10-17T22:47:42.265Z,17.23
2022-10-17T22:50:09.902Z,17.08
2022-10-17T22:52:37.482Z,17.65
2022-10-17T22:55:09.928Z,17.79
2022-10-17T22:57:41.924Z,17.76
2022-10-17T23:00:12.009Z,17.47
2022-10-17T23:02:40.137Z,16.70
2022-10-17T23:05:08.159Z,16.12
2022-10-17T23:07:38.727Z,16.57
2022-10-17T23:10:11.249Z,16.88
2022-10-17T23:12:38.921Z,16.91
2022-10-17T23:15:06.687Z,17.06
2022-10-17T23:17:33.781Z,17.22
2022-10-17T23:20:04.332Z,17.39
2022-10-17T23:22:31.647Z,16.34
2022-10-17T23:24:58.933Z,17.09
2022-10-17T23:30:00.635Z,18.71
2022-10-17T23:32:28.166Z,18.34
2022-10-17T23:35:02.644Z,18.79
2022-10-17T23:37:29.983Z,18.84
2022-10-17T23:39:57.244Z,18.88
2022-10-17T23:42:28.858Z,18.72
2022-10-17T23:44:56.165Z,18.90
2022-10-17T23:47:24.716Z,18.87
2022-10-17T23:49:51.860Z,18.99
2022-10-17T23:52:21.598Z,18.76
2022-10-17T23:54:50.329Z,18.62
2022-10-17T23:57:18.513Z,18.57
2022-10-17T23:59:48.968Z,18.64
